createdAt,value
2022-10-11T00:00:09.090Z,100530.22
2022-10-11T00:02:35.826Z,100523.09
2022-10-11T00:05:02.856Z,100510.13
2022-10-11T00:07:29.818Z,100526.41
2022-10-11T00:09:56.613Z,100521.44
2022-10-11T00:12:23.529Z,100524.25
2022-10-11T00:14:50.230Z,100528.13
2022-10-11T00:17:16.972Z,100526.59
2022-10-11T00:19:43.838Z,100519.47
2022-10-11T00:22:10.650Z,100518.13
2022-10-11T00:24:37.364Z,100529.09
2022-10-11T00:27:04.200Z,100510.81
2022-10-11T00:29:30.905Z,100522.00
2022-10-11T00:31:57.677Z,100514.81
2022-10-11T00:34:24.565Z,100509.63
2022-10-11T00:36:51.263Z,100453.00
2022-10-11T00:39:20.724Z,100504.50
2022-10-11T00:41:49.424Z,100499.69
2022-10-11T00:44:17.683Z,100513.97
2022-10-11T00:47:12.584Z,100498.19
2022-10-11T00:49:44.217Z,100498.00
2022-10-11T00:52:34.201Z,100504.47
2022-10-11T00:55:12.614Z,100508.53
2022-10-11T00:57:44.207Z,100500.03
2022-10-11T01:00:13.962Z,100508.31
2022-10-11T01:02:41.941Z,100510.13
2022-10-11T01:05:28.553Z,100500.81
2022-10-11T01:07:56.289Z,100516.16
2022-10-11T01:10:24.879Z,100510.31
2022-10-11T01:13:22.378Z,100507.34
2022-10-11T01:16:04.746Z,100501.84
2022-10-11T01:18:47.987Z,100508.84
2022-10-11T01:21:34.185Z,100509.34
2022-10-11T01:24:08.711Z,100509.50
2022-10-11T01:27:00.597Z,100509.53
2022-10-11T01:29:30.387Z,100514.69
2022-10-11T01:32:19.395Z,100484.94
2022-10-11T01:35:00.020Z,100486.28
2022-10-11T01:37:35.591Z,100512.69
2022-10-11T01:40:12.346Z,100503.72
2022-10-11T01:42:41.462Z,100508.34
2022-10-11T01:45:10.912Z,100502.69
2022-10-11T01:47:39.191Z,100508.50
2022-10-11T01:50:08.274Z,100497.06
2022-10-11T01:52:42.025Z,100498.25
2022-10-11T01:55:23.776Z,100501.06
2022-10-11T01:58:09.968Z,100510.53
2022-10-11T02:00:51.979Z,100499.38
2022-10-11T02:04:08.055Z,100500.56
2022-10-11T02:06:56.619Z,100489.59
2022-10-11T02:09:26.733Z,100502.22
2022-10-11T02:12:02.531Z,100488.94
2022-10-11T02:14:34.332Z,100497.06
2022-10-11T02:17:07.871Z,100475.31
2022-10-11T02:19:45.712Z,100491.25
2022-10-11T02:22:21.754Z,100494.75
2022-10-11T02:24:52.028Z,100500.22
2022-10-11T02:27:24.657Z,100476.47
2022-10-11T02:29:54.048Z,100472.13
2022-10-11T02:32:22.076Z,100494.59
2022-10-11T02:34:55.060Z,100490.59
2022-10-11T02:37:27.377Z,100493.91
2022-10-11T02:40:18.013Z,100484.44
2022-10-11T02:42:50.055Z,100467.81
2022-10-11T02:45:21.519Z,100488.94
2022-10-11T02:47:48.712Z,100491.75
2022-10-11T02:50:16.270Z,100479.47
2022-10-11T02:52:43.136Z,100482.13
2022-10-11T02:55:11.206Z,100444.38
2022-10-11T02:57:37.966Z,100454.03
2022-10-11T03:00:05.815Z,100476.13
2022-10-11T03:02:32.582Z,100460.50
2022-10-11T03:04:59.296Z,100471.47
2022-10-11T03:07:26.169Z,100456.50
2022-10-11T03:09:52.851Z,100446.38
2022-10-11T03:12:19.575Z,100479.78
2022-10-11T03:14:46.439Z,100488.59
2022-10-11T03:17:35.149Z,100492.06
2022-10-11T03:20:00.092Z,100485.09
2022-10-11T03:22:26.852Z,100491.56
2022-10-11T03:24:53.557Z,100484.09
2022-10-11T03:27:20.359Z,100451.69
2022-10-11T03:29:47.053Z,100488.06
2022-10-11T03:32:13.763Z,100478.13
2022-10-11T03:34:40.516Z,100487.94
2022-10-11T03:37:07.340Z,100477.28
2022-10-11T03:39:34.174Z,100462.81
2022-10-11T03:42:07.331Z,100469.47
2022-10-11T03:44:40.106Z,100460.50
2022-10-11T03:47:12.977Z,100469.47
2022-10-11T03:49:43.422Z,100482.25
2022-10-11T03:52:11.337Z,100466.81
2022-10-11T03:54:38.141Z,100467.31
2022-10-11T03:57:04.963Z,100449.53
2022-10-11T03:59:33.678Z,100479.94
2022-10-11T04:02:00.508Z,100466.00
2022-10-11T04:04:27.250Z,100454.84
2022-10-11T04:06:54.342Z,100453.03
2022-10-11T04:09:21.039Z,100470.16
2022-10-11T04:11:47.757Z,100443.56
2022-10-11T04:14:14.973Z,100471.66
2022-10-11T04:16:42.073Z,100461.00
2022-10-11T04:19:08.977Z,100464.31
2022-10-11T04:21:35.837Z,100475.47
2022-10-11T04:24:02.621Z,100466.66
2022-10-11T04:26:29.336Z,100485.75
2022-10-11T04:28:56.219Z,100490.59
2022-10-11T04:31:23.680Z,100472.13
2022-10-11T04:33:50.434Z,100488.94
2022-10-11T04:36:17.203Z,100466.66
2022-10-11T04:38:43.908Z,100474.78
2022-10-11T04:41:13.414Z,100476.31
2022-10-11T04:43:40.695Z,100479.13
2022-10-11T04:46:08.408Z,100504.88
2022-10-11T04:48:35.599Z,100505.53
2022-10-11T04:51:02.534Z,100468.94
2022-10-11T04:53:29.269Z,100480.56
2022-10-11T04:55:58.967Z,100493.91
2022-10-11T04:58:25.815Z,100507.84
2022-10-11T05:00:52.510Z,100510.03
2022-10-11T05:03:19.260Z,100503.56
2022-10-11T05:05:46.125Z,100493.41
2022-10-11T05:08:13.099Z,100490.25
2022-10-11T05:10:39.779Z,100507.03
2022-10-11T05:13:07.033Z,100499.03
2022-10-11T05:15:33.997Z,100513.50
2022-10-11T05:18:00.833Z,100511.84
2022-10-11T05:20:28.120Z,100508.03
2022-10-11T05:22:54.868Z,100503.03
2022-10-11T05:25:21.603Z,100513.16
2022-10-11T05:27:48.926Z,100494.19
2022-10-11T05:30:15.692Z,100525.47
2022-10-11T05:32:42.371Z,100526.63
2022-10-11T05:35:09.584Z,100506.81
2022-10-11T05:37:36.372Z,100523.28
2022-10-11T05:40:04.149Z,100534.41
2022-10-11T05:42:30.924Z,100518.06
2022-10-11T05:44:57.599Z,100527.66
2022-10-11T05:47:24.444Z,100531.84
2022-10-11T05:49:51.231Z,100528.00
2022-10-11T05:52:21.607Z,100540.81
2022-10-11T05:54:48.929Z,100534.50
2022-10-11T05:57:16.654Z,100540.66
2022-10-11T05:59:43.432Z,100546.94
2022-10-11T06:02:13.826Z,100532.47
2022-10-11T06:04:40.753Z,100560.25
2022-10-11T06:07:09.021Z,100534.78
2022-10-11T06:09:35.816Z,100530.09
2022-10-11T06:12:03.041Z,100539.59
2022-10-11T06:14:29.863Z,100561.13
2022-10-11T06:16:56.553Z,100547.81
2022-10-11T06:19:23.746Z,100534.31
2022-10-11T06:21:50.507Z,100564.09
2022-10-11T06:24:17.601Z,100568.75
2022-10-11T06:26:44.359Z,100563.56
2022-10-11T06:29:11.118Z,100560.91
2022-10-11T06:31:37.986Z,100563.41
2022-10-11T06:34:04.845Z,100556.41
2022-10-11T06:36:31.548Z,100565.91
2022-10-11T06:39:01.164Z,100553.41
2022-10-11T06:41:30.500Z,100559.06
2022-10-11T06:43:57.443Z,100565.56
2022-10-11T06:46:26.307Z,100566.19
2022-10-11T06:48:54.275Z,100568.16
2022-10-11T06:51:22.521Z,100574.13
2022-10-11T06:53:51.142Z,100574.47
2022-10-11T06:56:19.337Z,100567.97
2022-10-11T06:58:46.383Z,100572.31
2022-10-11T07:01:18.856Z,100564.16
2022-10-11T07:03:46.146Z,100550.59
2022-10-11T07:06:15.424Z,100570.56
2022-10-11T07:08:43.172Z,100576.22
2022-10-11T07:11:11.098Z,100569.41
2022-10-11T07:13:38.819Z,100595.16
2022-10-11T07:16:08.139Z,100591.69
2022-10-11T07:18:35.341Z,100610.00
2022-10-11T07:21:11.913Z,100610.34
2022-10-11T07:23:38.870Z,100609.19
2022-10-11T07:26:07.555Z,100615.88
2022-10-11T07:28:36.024Z,100617.84
2022-10-11T07:31:10.432Z,100627.53
2022-10-11T07:33:37.173Z,100639.66
2022-10-11T07:36:05.217Z,100636.38
2022-10-11T07:38:33.001Z,100635.81
2022-10-11T07:41:00.137Z,100621.69
2022-10-11T07:43:26.839Z,100598.56
2022-10-11T07:45:55.832Z,100644.19
2022-10-11T07:48:22.997Z,100648.56
2022-10-11T07:50:49.695Z,100635.09
2022-10-11T07:53:16.740Z,100633.28
2022-10-11T07:55:43.491Z,100657.91
2022-10-11T07:58:11.857Z,100646.75
2022-10-11T08:00:42.390Z,100654.09
2022-10-11T08:03:10.559Z,100661.19
2022-10-11T08:05:39.189Z,100675.31
2022-10-11T08:08:05.990Z,100655.28
2022-10-11T08:10:38.427Z,100667.31
2022-10-11T08:13:05.570Z,100684.13
2022-10-11T08:15:32.554Z,100681.81
2022-10-11T08:17:59.413Z,100671.06
2022-10-11T08:20:27.649Z,100686.34
2022-10-11T08:22:55.359Z,100683.41
2022-10-11T08:25:22.076Z,100688.34
2022-10-11T08:27:48.938Z,100689.06
2022-10-11T08:30:15.960Z,100678.88
2022-10-11T08:32:42.751Z,100695.25
2022-10-11T08:35:09.490Z,100689.19
2022-10-11T08:37:36.274Z,100711.16
2022-10-11T08:40:03.622Z,100690.22
2022-10-11T08:42:48.652Z,100682.75
2022-10-11T08:45:32.117Z,100698.66
2022-10-11T08:48:16.009Z,100699.31
2022-10-11T08:50:46.617Z,100706.78
2022-10-11T08:53:54.029Z,100706.03
2022-10-11T08:56:22.843Z,100691.59
2022-10-11T08:59:02.202Z,100708.56
2022-10-11T09:01:31.255Z,100693.91
2022-10-11T09:04:00.361Z,100711.34
2022-10-11T09:06:30.528Z,100706.94
2022-10-11T09:08:59.828Z,100726.28
2022-10-11T09:11:46.940Z,100722.16
2022-10-11T09:14:19.465Z,100728.25
2022-10-11T09:17:22.015Z,100726.03
2022-10-11T09:20:13.481Z,100727.00
2022-10-11T09:23:19.380Z,100733.72
2022-10-11T09:25:58.276Z,100722.00
2022-10-11T09:28:46.342Z,100722.09
2022-10-11T09:31:13.209Z,100739.06
2022-10-11T09:33:51.572Z,100714.00
2022-10-11T09:36:27.325Z,100717.34
2022-10-11T09:39:06.895Z,100717.75
2022-10-11T09:41:38.637Z,100725.13
2022-10-11T09:44:07.759Z,100717.38
2022-10-11T09:46:34.332Z,100714.06
2022-10-11T09:49:08.071Z,100684.41
2022-10-11T09:51:35.083Z,100717.31
2022-10-11T09:54:05.198Z,100692.53
2022-10-11T09:56:35.276Z,100713.53
2022-10-11T09:59:21.205Z,100720.06
2022-10-11T10:01:48.548Z,100714.59
2022-10-11T10:04:17.320Z,100703.66
2022-10-11T10:06:44.233Z,100708.44
2022-10-11T10:09:31.177Z,100705.41
2022-10-11T10:11:58.336Z,100713.16
2022-10-11T10:14:29.136Z,100704.25
2022-10-11T10:17:03.027Z,100670.06
2022-10-11T10:19:47.600Z,100687.56
2022-10-11T10:22:28.567Z,100686.47
2022-10-11T10:24:57.131Z,100712.75
2022-10-11T10:27:25.314Z,100713.81
2022-10-11T10:30:08.486Z,100715.53
2022-10-11T10:32:57.102Z,100713.44
2022-10-11T10:35:44.869Z,100709.66
2022-10-11T10:38:14.365Z,100714.63
2022-10-11T10:40:59.159Z,100698.41
2022-10-11T10:43:30.278Z,100715.97
2022-10-11T10:46:24.926Z,100715.84
2022-10-11T10:52:42.057Z,100699.56
2022-10-11T10:55:33.736Z,100710.78
2022-10-11T10:58:22.413Z,100691.00
2022-10-11T11:00:52.035Z,100665.16
2022-10-11T11:03:46.228Z,100703.44
2022-10-11T11:06:35.691Z,100660.81
2022-10-11T11:09:07.231Z,100714.09
2022-10-11T11:11:36.893Z,100690.00
2022-10-11T11:14:08.627Z,100709.34
2022-10-11T11:17:00.504Z,100697.88
2022-10-11T11:19:38.166Z,100689.94
2022-10-11T11:22:04.896Z,100707.19
2022-10-11T11:24:40.669Z,100702.47
2022-10-11T11:27:10.496Z,100683.25
2022-10-11T11:30:01.906Z,100685.63
2022-10-11T11:32:49.419Z,100681.31
2022-10-11T11:35:28.311Z,100679.16
2022-10-11T11:38:06.385Z,100660.88
2022-10-11T11:40:37.336Z,100677.13
2022-10-11T11:43:19.201Z,100662.19
2022-10-11T11:45:52.074Z,100654.59
2022-10-11T11:48:24.663Z,100658.16
2022-10-11T11:50:59.241Z,100660.63
2022-10-11T11:53:43.631Z,100671.13
2022-10-11T11:56:25.938Z,100661.53
2022-10-11T11:59:19.769Z,100688.72
2022-10-11T12:01:56.037Z,100663.16
2022-10-11T12:04:28.632Z,100670.50
2022-10-11T12:07:16.212Z,100673.56
2022-10-11T12:09:47.013Z,100660.78
2022-10-11T12:12:36.425Z,100665.50
2022-10-11T12:15:09.164Z,100661.28
2022-10-11T12:17:58.012Z,100654.38
2022-10-11T12:20:30.945Z,100632.31
2022-10-11T12:23:00.938Z,100647.03
2022-10-11T12:25:28.593Z,100659.16
2022-10-11T12:27:57.183Z,100646.16
2022-10-11T12:30:48.552Z,100633.88
2022-10-11T12:33:18.287Z,100639.31
2022-10-11T12:35:54.479Z,100632.94
2022-10-11T12:38:37.369Z,100628.47
2022-10-11T12:41:10.434Z,100619.78
2022-10-11T12:44:06.173Z,100620.81
2022-10-11T12:46:40.569Z,100611.50
2022-10-11T12:49:22.888Z,100595.41
2022-10-11T12:52:20.398Z,100622.34
2022-10-11T12:55:26.729Z,100622.09
2022-10-11T12:57:56.798Z,100617.88
2022-10-11T13:00:40.513Z,100624.63
2022-10-11T13:03:32.557Z,100594.06
2022-10-11T13:06:09.574Z,100616.38
2022-10-11T13:08:40.426Z,100602.28
2022-10-11T13:11:11.022Z,100582.19
2022-10-11T13:13:42.646Z,100589.28
2022-10-11T13:16:14.354Z,100567.13
2022-10-11T13:18:48.217Z,100590.63
2022-10-11T13:21:27.152Z,100588.75
2022-10-11T13:24:16.189Z,100580.47
2022-10-11T13:26:50.487Z,100593.28
2022-10-11T13:29:26.375Z,100590.38
2022-10-11T13:31:53.172Z,100528.28
2022-10-11T13:34:23.386Z,100600.72
2022-10-11T13:36:56.074Z,100576.53
2022-10-11T13:39:31.257Z,100533.84
2022-10-11T13:41:59.938Z,100590.22
2022-10-11T13:44:27.352Z,100558.53
2022-10-11T13:46:54.665Z,100575.38
2022-10-11T13:49:31.717Z,100563.38
2022-10-11T13:52:01.186Z,100558.78
2022-10-11T13:55:05.318Z,100574.69
2022-10-11T13:57:52.632Z,100580.25
2022-10-11T14:00:32.632Z,100564.59
2022-10-11T14:03:17.781Z,100566.19
2022-10-11T14:05:54.561Z,100543.72
2022-10-11T14:08:42.095Z,100552.72
2022-10-11T14:11:11.596Z,100535.31
2022-10-11T14:13:56.577Z,100550.00
2022-10-11T14:16:23.330Z,100562.31
2022-10-11T14:18:58.965Z,100569.59
2022-10-11T14:21:46.740Z,100562.88
2022-10-11T14:24:15.117Z,100553.72
2022-10-11T14:26:48.507Z,100554.47
2022-10-11T14:29:23.748Z,100551.59
2022-10-11T14:31:51.208Z,100532.09
2022-10-11T14:34:20.923Z,100546.19
2022-10-11T14:36:48.393Z,100532.03
2022-10-11T14:39:18.325Z,100545.53
2022-10-11T14:41:45.581Z,100542.47
2022-10-11T14:44:12.517Z,100553.56
2022-10-11T14:46:41.188Z,100534.81
2022-10-11T14:49:17.023Z,100546.94
2022-10-11T14:51:47.551Z,100524.56
2022-10-11T14:54:15.328Z,100542.94
2022-10-11T14:56:42.270Z,100550.53
2022-10-11T14:59:15.015Z,100534.97
2022-10-11T15:01:42.088Z,100552.34
2022-10-11T15:04:09.231Z,100551.53
2022-10-11T15:06:38.999Z,100547.91
2022-10-11T15:09:06.583Z,100550.78
2022-10-11T15:11:33.765Z,100549.75
2022-10-11T15:14:00.735Z,100536.47
2022-10-11T15:16:27.465Z,100537.34
2022-10-11T15:18:54.336Z,100551.03
2022-10-11T15:21:24.026Z,100524.31
2022-10-11T15:23:52.132Z,100548.00
2022-10-11T15:26:29.603Z,100552.97
2022-10-11T15:28:57.535Z,100547.88
2022-10-11T15:31:24.516Z,100550.56
2022-10-11T15:33:51.792Z,100554.56
2022-10-11T15:36:21.531Z,100567.28
2022-10-11T15:38:49.436Z,100546.75
2022-10-11T15:41:18.965Z,100548.28
2022-10-11T15:43:47.156Z,100560.41
2022-10-11T15:46:17.639Z,100557.41
2022-10-11T15:48:44.878Z,100524.34
2022-10-11T15:51:11.761Z,100563.78
2022-10-11T15:53:38.562Z,100562.69
2022-10-11T15:56:08.406Z,100559.06
2022-10-11T15:58:40.900Z,100554.94
2022-10-11T16:01:11.892Z,100544.63
2022-10-11T16:03:38.696Z,100550.78
2022-10-11T16:06:06.088Z,100541.09
2022-10-11T16:08:34.346Z,100556.25
2022-10-11T16:11:01.675Z,100558.56
2022-10-11T16:13:28.467Z,100548.66
2022-10-11T16:15:55.400Z,100545.59
2022-10-11T16:18:22.407Z,100506.03
2022-10-11T16:20:52.080Z,100535.22
2022-10-11T16:23:21.073Z,100516.56
2022-10-11T16:26:03.758Z,100540.03
2022-10-11T16:28:32.053Z,100536.25
2022-10-11T16:30:59.168Z,100545.41
2022-10-11T16:33:27.018Z,100514.44
2022-10-11T16:35:54.006Z,100537.25
2022-10-11T16:38:20.725Z,100536.06
2022-10-11T16:40:47.470Z,100538.19
2022-10-11T16:43:14.410Z,100528.34
2022-10-11T16:45:41.132Z,100530.38
2022-10-11T16:48:07.893Z,100535.03
2022-10-11T16:50:39.329Z,100525.63
2022-10-11T16:53:06.601Z,100543.38
2022-10-11T16:55:33.335Z,100542.00
2022-10-11T16:58:00.184Z,100541.94
2022-10-11T17:00:26.903Z,100521.66
2022-10-11T17:02:53.583Z,100530.78
2022-10-11T17:05:20.495Z,100557.09
2022-10-11T17:07:47.196Z,100538.84
2022-10-11T17:10:13.973Z,100523.06
2022-10-11T17:12:40.820Z,100538.59
2022-10-11T17:15:10.781Z,100545.88
2022-10-11T17:17:37.877Z,100536.59
2022-10-11T17:20:05.187Z,100538.25
2022-10-11T17:22:31.884Z,100530.72
2022-10-11T17:25:01.516Z,100551.88
2022-10-11T17:27:28.793Z,100538.34
2022-10-11T17:29:55.530Z,100557.22
2022-10-11T17:32:22.228Z,100547.25
2022-10-11T17:34:49.039Z,100543.78
2022-10-11T17:37:15.788Z,100554.97
2022-10-11T17:39:43.011Z,100549.69
2022-10-11T17:42:09.838Z,100558.13
2022-10-11T17:44:36.639Z,100559.09
2022-10-11T17:47:04.906Z,100559.00
2022-10-11T17:49:31.910Z,100531.47
2022-10-11T17:51:58.692Z,100558.97
2022-10-11T17:54:26.123Z,100560.16
2022-10-11T17:56:54.767Z,100575.38
2022-10-11T17:59:21.944Z,100486.13
2022-10-11T18:01:51.830Z,100558.38
2022-10-11T18:04:21.585Z,100568.44
2022-10-11T18:06:48.500Z,100569.03
2022-10-11T18:09:17.571Z,100536.84
2022-10-11T18:11:44.667Z,100564.31
2022-10-11T18:14:11.427Z,100584.69
2022-10-11T18:16:39.165Z,100576.41
2022-10-11T18:19:11.297Z,100575.81
2022-10-11T18:21:38.981Z,100566.00
2022-10-11T18:24:13.053Z,100555.22
2022-10-11T18:26:40.047Z,100560.06
2022-10-11T18:29:07.125Z,100590.63
2022-10-11T18:31:35.371Z,100595.13
2022-10-11T18:34:03.296Z,100562.22
2022-10-11T18:36:31.363Z,100560.41
2022-10-11T18:39:00.879Z,100598.44
2022-10-11T18:41:30.820Z,100600.81
2022-10-11T18:44:04.518Z,100598.91
2022-10-11T18:46:32.369Z,100612.88
2022-10-11T18:49:02.177Z,100609.56
2022-10-11T18:51:28.958Z,100613.56
2022-10-11T18:53:58.502Z,100611.09
2022-10-11T18:56:27.120Z,100617.13
2022-10-11T18:58:55.727Z,100605.97
2022-10-11T19:01:26.720Z,100599.34
2022-10-11T19:03:56.837Z,100612.84
2022-10-11T19:06:26.995Z,100610.97
2022-10-11T19:09:01.966Z,100607.25
2022-10-11T19:11:29.117Z,100624.22
2022-10-11T19:14:00.029Z,100630.41
2022-10-11T19:16:29.979Z,100627.06
2022-10-11T19:18:57.324Z,100621.81
2022-10-11T19:21:24.916Z,100642.22
2022-10-11T19:23:52.535Z,100631.31
2022-10-11T19:26:22.534Z,100614.91
2022-10-11T19:28:55.433Z,100622.03
2022-10-11T19:31:22.199Z,100650.38
2022-10-11T19:33:49.717Z,100657.69
2022-10-11T19:36:17.503Z,100640.94
2022-10-11T19:38:46.622Z,100626.03
2022-10-11T19:41:15.260Z,100623.41
2022-10-11T19:43:42.862Z,100639.59
2022-10-11T19:46:20.221Z,100654.06
2022-10-11T19:48:54.544Z,100617.50
2022-10-11T19:51:26.628Z,100666.47
2022-10-11T19:53:56.999Z,100667.16
2022-10-11T19:56:27.863Z,100673.53
2022-10-11T19:58:55.166Z,100681.56
2022-10-11T20:01:24.235Z,100667.09
2022-10-11T20:03:54.018Z,100675.63
2022-10-11T20:06:23.082Z,100679.66
2022-10-11T20:09:10.327Z,100656.97
2022-10-11T20:11:37.506Z,100690.72
2022-10-11T20:14:04.621Z,100689.09
2022-10-11T20:16:31.324Z,100663.69
2022-10-11T20:18:59.377Z,100677.94
2022-10-11T20:21:28.714Z,100664.16
2022-10-11T20:24:01.353Z,100651.72
2022-10-11T20:26:29.894Z,100671.97
2022-10-11T20:28:57.342Z,100682.88
2022-10-11T20:31:29.836Z,100666.03
2022-10-11T20:33:58.575Z,100668.19
2022-10-11T20:36:28.053Z,100656.06
2022-10-11T20:38:54.956Z,100677.03
2022-10-11T20:41:27.651Z,100645.41
2022-10-11T20:43:56.852Z,100676.81
2022-10-11T20:46:28.138Z,100681.03
2022-10-11T20:49:01.547Z,100680.34
2022-10-11T20:51:30.296Z,100686.38
2022-10-11T20:53:57.460Z,100666.44
2022-10-11T20:56:24.888Z,100665.13
2022-10-11T20:58:53.780Z,100688.53
2022-10-11T21:01:23.519Z,100658.44
2022-10-11T21:03:50.568Z,100700.59
2022-10-11T21:06:17.318Z,100684.44
2022-10-11T21:08:44.901Z,100686.72
2022-10-11T21:11:11.706Z,100674.59
2022-10-11T21:13:38.615Z,100676.41
2022-10-11T21:16:05.435Z,100692.75
2022-10-11T21:18:32.349Z,100676.97
2022-10-11T21:21:06.431Z,100688.66
2022-10-11T21:23:33.624Z,100692.84
2022-10-11T21:26:06.236Z,100678.53
2022-10-11T21:28:34.070Z,100687.69
2022-10-11T21:31:08.756Z,100686.34
2022-10-11T21:33:36.184Z,100687.94
2022-10-11T21:36:20.126Z,100687.28
2022-10-11T21:38:46.957Z,100697.94
2022-10-11T21:41:18.284Z,100693.22
2022-10-11T21:43:45.859Z,100692.53
2022-10-11T21:46:16.372Z,100692.53
2022-10-11T21:48:43.358Z,100699.13
2022-10-11T21:51:17.726Z,100688.81
2022-10-11T21:53:44.416Z,100718.72
2022-10-11T21:56:11.160Z,100712.19
2022-10-11T21:58:37.980Z,100678.25
2022-10-11T22:01:04.814Z,100714.50
2022-10-11T22:03:31.633Z,100701.53
2022-10-11T22:06:01.387Z,100711.00
2022-10-11T22:08:28.089Z,100674.47
2022-10-11T22:10:58.056Z,100651.69
2022-10-11T22:13:25.772Z,100699.78
2022-10-11T22:15:53.719Z,100683.44
2022-10-11T22:18:20.800Z,100707.63
2022-10-11T22:20:47.597Z,100704.50
2022-10-11T22:23:14.357Z,100692.84
2022-10-11T22:25:41.499Z,100709.66
2022-10-11T22:28:08.857Z,100638.97
2022-10-11T22:30:35.637Z,100676.59
2022-10-11T22:33:02.391Z,100673.25
2022-10-11T22:35:31.388Z,100669.31
2022-10-11T22:38:00.333Z,100686.06
2022-10-11T22:40:27.102Z,100686.69
2022-10-11T22:42:53.923Z,100671.25
2022-10-11T22:45:20.606Z,100697.16
2022-10-11T22:47:47.291Z,100692.84
2022-10-11T22:50:14.135Z,100697.16
2022-10-11T22:52:40.887Z,100683.03
2022-10-11T22:55:08.016Z,100693.81
2022-10-11T22:57:35.146Z,100693.22
2022-10-11T23:00:02.049Z,100705.03
2022-10-11T23:02:28.845Z,100690.91
2022-10-11T23:04:55.676Z,100676.44
2022-10-11T23:07:22.424Z,100680.78
2022-10-11T23:09:49.134Z,100697.72
2022-10-11T23:12:16.006Z,100692.28
2022-10-11T23:14:42.854Z,100689.75
2022-10-11T23:17:09.561Z,100702.09
2022-10-11T23:19:37.308Z,100695.28
2022-10-11T23:22:04.095Z,100691.28
2022-10-11T23:24:30.955Z,100677.97
2022-10-11T23:26:57.765Z,100699.59
2022-10-11T23:29:24.509Z,100701.31
2022-10-11T23:31:51.634Z,100640.59
2022-10-11T23:34:18.585Z,100693.13
2022-10-11T23:36:45.343Z,100682.97
2022-10-11T23:39:13.064Z,100704.09
2022-10-11T23:41:39.885Z,100694.13
2022-10-11T23:44:06.665Z,100689.75
2022-10-11T23:46:33.493Z,100676.91
2022-10-11T23:49:00.308Z,100700.97
2022-10-11T23:51:27.196Z,100703.81
2022-10-11T23:53:54.182Z,100693.97
2022-10-11T23:56:21.542Z,100702.97
2022-10-11T23:58:48.322Z,100704.50
